sensor_id;sensor_type;location;lat;lon;timestamp;P1;durP1;ratioP1;P2;durP2;ratioP2
8159;SDS011;27404;52.398;9.646;2023-10-08T00:01:14;0.50;;;0.40;;
8159;SDS011;27404;52.398;9.646;2023-10-08T00:03:44;0.50;;;0.47;;
8159;SDS011;27404;52.398;9.646;2023-10-08T00:06:18;0.27;;;0.27;;
8159;SDS011;27404;52.398;9.646;2023-10-08T00:08:46;0.40;;;0.27;;
8159;SDS011;27404;52.398;9.646;2023-10-08T00:11:12;0.60;;;0.40;;
8159;SDS011;27404;52.398;9.646;2023-10-08T00:13:40;0.80;;;0.50;;
8159;SDS011;27404;52.398;9.646;2023-10-08T00:16:07;0.63;;;0.30;;
8159;SDS011;27404;52.398;9.646;2023-10-08T00:18:40;0.30;;;0.30;;
8159;SDS011;27404;52.398;9.646;2023-10-08T00:21:14;0.30;;;0.27;;
8159;SDS011;27404;52.398;9.646;2023-10-08T00:23:40;1.90;;;0.20;;
8159;SDS011;27404;52.398;9.646;2023-10-08T00:26:07;0.53;;;0.23;;
8159;SDS011;27404;52.398;9.646;2023-10-08T00:28:33;0.30;;;0.20;;
8159;SDS011;27404;52.398;9.646;2023-10-08T00:31:01;0.30;;;0.20;;
8159;SDS011;27404;52.398;9.646;2023-10-08T00:33:37;0.20;;;0.10;;
8159;SDS011;27404;52.398;9.646;2023-10-08T00:36:03;0.27;;;0.20;;
8159;SDS011;27404;52.398;9.646;2023-10-08T00:38:48;0.57;;;0.23;;
8159;SDS011;27404;52.398;9.646;2023-10-08T00:41:19;0.87;;;0.30;;
8159;SDS011;27404;52.398;9.646;2023-10-08T00:43:48;0.63;;;0.40;;
8159;SDS011;27404;52.398;9.646;2023-10-08T00:46:14;1.83;;;0.30;;
8159;SDS011;27404;52.398;9.646;2023-10-08T00:48:52;0.30;;;0.27;;
8159;SDS011;27404;52.398;9.646;2023-10-08T00:51:22;0.30;;;0.20;;
8159;SDS011;27404;52.398;9.646;2023-10-08T00:53:49;0.30;;;0.27;;
8159;SDS011;27404;52.398;9.646;2023-10-08T00:56:27;0.40;;;0.20;;
8159;SDS011;27404;52.398;9.646;2023-10-08T00:59:15;0.63;;;0.30;;
8159;SDS011;27404;52.398;9.646;2023-10-08T01:01:43;1.03;;;0.30;;
8159;SDS011;27404;52.398;9.646;2023-10-08T01:04:20;0.30;;;0.23;;
8159;SDS011;27404;52.398;9.646;2023-10-08T01:06:53;0.97;;;0.30;;
8159;SDS011;27404;52.398;9.646;2023-10-08T01:09:24;1.37;;;0.40;;
8159;SDS011;27404;52.398;9.646;2023-10-08T01:14:45;1.13;;;0.40;;
8159;SDS011;27404;52.398;9.646;2023-10-08T01:17:13;0.77;;;0.33;;
8159;SDS011;27404;52.398;9.646;2023-10-08T01:19:47;1.90;;;0.60;;
8159;SDS011;27404;52.398;9.646;2023-10-08T01:22:16;1.57;;;0.43;;
8159;SDS011;27404;52.398;9.646;2023-10-08T01:24:43;0.93;;;0.77;;
8159;SDS011;27404;52.398;9.646;2023-10-08T01:27:18;0.90;;;0.50;;
8159;SDS011;27404;52.398;9.646;2023-10-08T01:29:48;1.23;;;0.50;;
8159;SDS011;27404;52.398;9.646;2023-10-08T01:32:16;3.10;;;0.60;;
8159;SDS011;27404;52.398;9.646;2023-10-08T01:34:42;3.90;;;0.70;;
8159;SDS011;27404;52.398;9.646;2023-10-08T01:37:13;1.40;;;0.60;;
8159;SDS011;27404;52.398;9.646;2023-10-08T01:39:42;2.00;;;0.60;;
8159;SDS011;27404;52.398;9.646;2023-10-08T01:42:08;1.87;;;0.80;;
8159;SDS011;27404;52.398;9.646;2023-10-08T01:44:44;2.67;;;0.53;;
8159;SDS011;27404;52.398;9.646;2023-10-08T01:47:19;1.93;;;0.40;;
8159;SDS011;27404;52.398;9.646;2023-10-08T01:49:45;3.23;;;0.60;;
8159;SDS011;27404;52.398;9.646;2023-10-08T01:52:14;3.37;;;1.03;;
8159;SDS011;27404;52.398;9.646;2023-10-08T01:54:49;0.83;;;0.43;;
8159;SDS011;27404;52.398;9.646;2023-10-08T01:57:15;1.20;;;0.50;;
8159;SDS011;27404;52.398;9.646;2023-10-08T01:59:42;2.33;;;0.80;;
8159;SDS011;27404;52.398;9.646;2023-10-08T02:02:09;3.23;;;1.27;;
8159;SDS011;27404;52.398;9.646;2023-10-08T02:04:34;2.13;;;0.60;;
8159;SDS011;27404;52.398;9.646;2023-10-08T02:07:01;3.20;;;0.90;;
8159;SDS011;27404;52.398;9.646;2023-10-08T02:09:30;2.97;;;0.90;;
8159;SDS011;27404;52.398;9.646;2023-10-08T02:11:58;1.27;;;0.53;;
8159;SDS011;27404;52.398;9.646;2023-10-08T02:14:23;3.47;;;1.00;;
8159;SDS011;27404;52.398;9.646;2023-10-08T02:16:49;2.13;;;0.57;;
8159;SDS011;27404;52.398;9.646;2023-10-08T02:19:20;2.73;;;1.10;;
8159;SDS011;27404;52.398;9.646;2023-10-08T02:21:52;1.13;;;0.60;;
8159;SDS011;27404;52.398;9.646;2023-10-08T02:24:21;3.70;;;0.60;;
8159;SDS011;27404;52.398;9.646;2023-10-08T02:26:52;3.23;;;0.50;;
8159;SDS011;27404;52.398;9.646;2023-10-08T02:29:19;1.47;;;0.73;;
8159;SDS011;27404;52.398;9.646;2023-10-08T02:31:47;2.10;;;0.70;;
8159;SDS011;27404;52.398;9.646;2023-10-08T02:34:12;1.43;;;0.63;;
8159;SDS011;27404;52.398;9.646;2023-10-08T02:36:39;2.17;;;0.50;;
8159;SDS011;27404;52.398;9.646;2023-10-08T02:39:08;1.77;;;0.50;;
8159;SDS011;27404;52.398;9.646;2023-10-08T02:41:43;1.37;;;0.53;;
8159;SDS011;27404;52.398;9.646;2023-10-08T02:44:12;0.90;;;0.50;;
8159;SDS011;27404;52.398;9.646;2023-10-08T02:46:42;3.20;;;0.83;;
8159;SDS011;27404;52.398;9.646;2023-10-08T02:49:12;2.60;;;0.80;;
8159;SDS011;27404;52.398;9.646;2023-10-08T02:51:45;2.93;;;0.67;;
8159;SDS011;27404;52.398;9.646;2023-10-08T02:54:15;1.13;;;0.77;;
8159;SDS011;27404;52.398;9.646;2023-10-08T02:56:46;3.40;;;1.20;;
8159;SDS011;27404;52.398;9.646;2023-10-08T02:59:14;2.47;;;0.70;;
8159;SDS011;27404;52.398;9.646;2023-10-08T03:01:40;4.60;;;0.90;;
8159;SDS011;27404;52.398;9.646;2023-10-08T03:04:06;5.10;;;1.00;;
8159;SDS011;27404;52.398;9.646;2023-10-08T03:06:39;2.57;;;0.70;;
8159;SDS011;27404;52.398;9.646;2023-10-08T03:09:06;1.27;;;0.70;;
8159;SDS011;27404;52.398;9.646;2023-10-08T03:11:32;3.13;;;0.77;;
8159;SDS011;27404;52.398;9.646;2023-10-08T03:14:00;1.57;;;0.70;;
8159;SDS011;27404;52.398;9.646;2023-10-08T03:16:26;2.33;;;0.67;;
8159;SDS011;27404;52.398;9.646;2023-10-08T03:19:02;2.33;;;0.83;;
8159;SDS011;27404;52.398;9.646;2023-10-08T03:21:31;3.67;;;0.80;;
8159;SDS011;27404;52.398;9.646;2023-10-08T03:24:02;4.17;;;0.73;;
8159;SDS011;27404;52.398;9.646;2023-10-08T03:26:37;1.53;;;0.70;;
8159;SDS011;27404;52.398;9.646;2023-10-08T03:29:04;2.87;;;0.80;;
8159;SDS011;27404;52.398;9.646;2023-10-08T03:31:40;3.27;;;0.77;;
8159;SDS011;27404;52.398;9.646;2023-10-08T03:34:24;3.10;;;0.97;;
8159;SDS011;27404;52.398;9.646;2023-10-08T03:36:59;4.67;;;1.03;;
8159;SDS011;27404;52.398;9.646;2023-10-08T03:39:33;3.00;;;0.70;;
8159;SDS011;27404;52.398;9.646;2023-10-08T03:42:21;4.07;;;0.80;;
8159;SDS011;27404;52.398;9.646;2023-10-08T03:44:50;3.13;;;0.70;;
8159;SDS011;27404;52.398;9.646;2023-10-08T03:47:20;3.57;;;1.33;;
8159;SDS011;27404;52.398;9.646;2023-10-08T03:49:51;4.17;;;1.43;;
8159;SDS011;27404;52.398;9.646;2023-10-08T03:52:20;3.33;;;0.80;;
8159;SDS011;27404;52.398;9.646;2023-10-08T03:54:50;6.77;;;1.10;;
8159;SDS011;27404;52.398;9.646;2023-10-08T03:57:30;5.40;;;0.90;;
8159;SDS011;27404;52.398;9.646;2023-10-08T04:00:07;4.60;;;1.10;;
8159;SDS011;27404;52.398;9.646;2023-10-08T04:02:38;3.77;;;1.03;;
8159;SDS011;27404;52.398;9.646;2023-10-08T04:05:11;4.53;;;1.00;;
8159;SDS011;27404;52.398;9.646;2023-10-08T04:07:46;6.47;;;1.00;;
8159;SDS011;27404;52.398;9.646;2023-10-08T04:10:27;1.57;;;0.70;;
8159;SDS011;27404;52.398;9.646;2023-10-08T04:13:14;3.07;;;0.90;;
8159;SDS011;27404;52.398;9.646;2023-10-08T04:15:41;1.77;;;0.70;;
8159;SDS011;27404;52.398;9.646;2023-10-08T04:18:10;3.97;;;0.73;;
8159;SDS011;27404;52.398;9.646;2023-10-08T04:20:38;3.03;;;0.80;;
8159;SDS011;27404;52.398;9.646;2023-10-08T04:23:06;2.40;;;0.83;;
8159;SDS011;27404;52.398;9.646;2023-10-08T04:25:43;3.63;;;1.10;;
8159;SDS011;27404;52.398;9.646;2023-10-08T04:28:08;1.80;;;0.87;;
8159;SDS011;27404;52.398;9.646;2023-10-08T04:30:39;2.60;;;1.40;;
8159;SDS011;27404;52.398;9.646;2023-10-08T04:33:07;2.47;;;0.90;;
8159;SDS011;27404;52.398;9.646;2023-10-08T04:35:36;4.37;;;0.90;;
8159;SDS011;27404;52.398;9.646;2023-10-08T04:38:25;3.07;;;0.93;;
8159;SDS011;27404;52.398;9.646;2023-10-08T04:40:51;2.83;;;0.90;;
8159;SDS011;27404;52.398;9.646;2023-10-08T04:43:21;3.23;;;1.07;;
8159;SDS011;27404;52.398;9.646;2023-10-08T04:45:50;2.37;;;0.93;;
8159;SDS011;27404;52.398;9.646;2023-10-08T04:48:16;3.93;;;1.07;;
8159;SDS011;27404;52.398;9.646;2023-10-08T04:50:48;1.73;;;0.73;;
8159;SDS011;27404;52.398;9.646;2023-10-08T04:53:26;3.70;;;1.00;;
8159;SDS011;27404;52.398;9.646;2023-10-08T04:56:03;1.33;;;0.90;;
8159;SDS011;27404;52.398;9.646;2023-10-08T04:58:48;4.60;;;1.10;;
8159;SDS011;27404;52.398;9.646;2023-10-08T05:01:14;3.60;;;1.10;;
8159;SDS011;27404;52.398;9.646;2023-10-08T05:06:28;3.27;;;1.20;;
8159;SDS011;27404;52.398;9.646;2023-10-08T05:09:01;3.03;;;0.97;;
8159;SDS011;27404;52.398;9.646;2023-10-08T05:11:52;4.40;;;0.83;;
8159;SDS011;27404;52.398;9.646;2023-10-08T05:14:24;2.60;;;1.00;;
8159;SDS011;27404;52.398;9.646;2023-10-08T05:17:06;7.10;;;1.23;;
8159;SDS011;27404;52.398;9.646;2023-10-08T05:19:36;3.30;;;1.27;;
8159;SDS011;27404;52.398;9.646;2023-10-08T05:22:14;2.97;;;1.07;;
8159;SDS011;27404;52.398;9.646;2023-10-08T05:24:53;3.70;;;1.60;;
8159;SDS011;27404;52.398;9.646;2023-10-08T05:27:39;2.77;;;0.70;;
8159;SDS011;27404;52.398;9.646;2023-10-08T05:30:12;6.17;;;1.30;;
8159;SDS011;27404;52.398;9.646;2023-10-08T05:32:41;7.03;;;1.47;;
8159;SDS011;27404;52.398;9.646;2023-10-08T05:35:28;3.87;;;1.00;;
8159;SDS011;27404;52.398;9.646;2023-10-08T05:38:09;4.93;;;1.00;;
8159;SDS011;27404;52.398;9.646;2023-10-08T05:40:56;3.57;;;1.00;;
8159;SDS011;27404;52.398;9.646;2023-10-08T05:43:32;5.43;;;1.10;;
8159;SDS011;27404;52.398;9.646;2023-10-08T05:46:18;3.30;;;0.90;;
8159;SDS011;27404;52.398;9.646;2023-10-08T05:48:50;5.13;;;1.33;;
8159;SDS011;27404;52.398;9.646;2023-10-08T05:51:32;4.87;;;1.20;;
8159;SDS011;27404;52.398;9.646;2023-10-08T05:54:21;3.87;;;1.13;;
8159;SDS011;27404;52.398;9.646;2023-10-08T05:56:55;2.50;;;1.07;;
8159;SDS011;27404;52.398;9.646;2023-10-08T05:59:31;3.10;;;1.03;;
8159;SDS011;27404;52.398;9.646;2023-10-08T06:02:05;2.70;;;1.10;;
8159;SDS011;27404;52.398;9.646;2023-10-08T06:04:51;3.80;;;0.83;;
8159;SDS011;27404;52.398;9.646;2023-10-08T06:07:37;3.03;;;1.40;;
8159;SDS011;27404;52.398;9.646;2023-10-08T06:10:18;5.17;;;1.27;;
8159;SDS011;27404;52.398;9.646;2023-10-08T06:13:04;4.67;;;1.40;;
8159;SDS011;27404;52.398;9.646;2023-10-08T06:15:48;3.33;;;1.13;;
8159;SDS011;27404;52.398;9.646;2023-10-08T06:18:30;3.30;;;1.40;;
8159;SDS011;27404;52.398;9.646;2023-10-08T06:23:24;2.80;;;1.37;;
8159;SDS011;27404;52.398;9.646;2023-10-08T06:25:51;3.20;;;1.50;;
8159;SDS011;27404;52.398;9.646;2023-10-08T06:28:30;5.57;;;1.50;;
8159;SDS011;27404;52.398;9.646;2023-10-08T06:30:56;4.50;;;1.57;;
8159;SDS011;27404;52.398;9.646;2023-10-08T06:33:25;2.40;;;1.53;;
8159;SDS011;27404;52.398;9.646;2023-10-08T06:35:56;4.17;;;1.53;;
8159;SDS011;27404;52.398;9.646;2023-10-08T06:38:27;2.83;;;1.50;;
8159;SDS011;27404;52.398;9.646;2023-10-08T06:40:56;3.03;;;1.30;;
8159;SDS011;27404;52.398;9.646;2023-10-08T06:43:25;4.47;;;1.53;;
8159;SDS011;27404;52.398;9.646;2023-10-08T06:45:54;4.07;;;1.60;;
8159;SDS011;27404;52.398;9.646;2023-10-08T06:48:23;4.50;;;1.93;;
8159;SDS011;27404;52.398;9.646;2023-10-08T06:50:50;5.33;;;1.53;;
8159;SDS011;27404;52.398;9.646;2023-10-08T06:53:17;4.43;;;1.70;;
8159;SDS011;27404;52.398;9.646;2023-10-08T06:55:46;3.20;;;1.67;;
8159;SDS011;27404;52.398;9.646;2023-10-08T06:58:29;6.90;;;1.80;;
8159;SDS011;27404;52.398;9.646;2023-10-08T07:00:57;4.77;;;1.50;;
8159;SDS011;27404;52.398;9.646;2023-10-08T07:03:23;4.27;;;2.13;;
8159;SDS011;27404;52.398;9.646;2023-10-08T07:05:50;6.83;;;1.70;;
8159;SDS011;27404;52.398;9.646;2023-10-08T07:08:23;3.33;;;1.40;;
8159;SDS011;27404;52.398;9.646;2023-10-08T07:10:50;4.97;;;1.70;;
8159;SDS011;27404;52.398;9.646;2023-10-08T07:13:16;3.40;;;1.60;;
8159;SDS011;27404;52.398;9.646;2023-10-08T07:15:49;3.93;;;1.37;;
8159;SDS011;27404;52.398;9.646;2023-10-08T07:18:16;2.73;;;1.70;;
8159;SDS011;27404;52.398;9.646;2023-10-08T07:20:52;5.40;;;1.60;;
8159;SDS011;27404;52.398;9.646;2023-10-08T07:23:26;4.77;;;1.77;;
8159;SDS011;27404;52.398;9.646;2023-10-08T07:25:59;7.33;;;2.53;;
8159;SDS011;27404;52.398;9.646;2023-10-08T07:28:49;4.20;;;1.50;;
8159;SDS011;27404;52.398;9.646;2023-10-08T07:31:17;6.00;;;2.40;;
8159;SDS011;27404;52.398;9.646;2023-10-08T07:33:51;7.07;;;2.00;;
8159;SDS011;27404;52.398;9.646;2023-10-08T07:36:21;6.77;;;2.00;;
8159;SDS011;27404;52.398;9.646;2023-10-08T07:38:47;3.37;;;1.87;;
8159;SDS011;27404;52.398;9.646;2023-10-08T07:41:12;2.97;;;1.70;;
8159;SDS011;27404;52.398;9.646;2023-10-08T07:43:43;6.17;;;2.00;;
8159;SDS011;27404;52.398;9.646;2023-10-08T07:46:09;4.87;;;2.40;;
8159;SDS011;27404;52.398;9.646;2023-10-08T07:48:36;5.10;;;2.60;;
8159;SDS011;27404;52.398;9.646;2023-10-08T07:51:07;4.60;;;2.10;;
8159;SDS011;27404;52.398;9.646;2023-10-08T07:53:33;6.30;;;2.70;;
8159;SDS011;27404;52.398;9.646;2023-10-08T07:56:07;5.00;;;2.77;;
8159;SDS011;27404;52.398;9.646;2023-10-08T07:58:33;4.27;;;2.40;;
8159;SDS011;27404;52.398;9.646;2023-10-08T08:01:06;3.40;;;2.30;;
8159;SDS011;27404;52.398;9.646;2023-10-08T08:03:35;5.50;;;2.30;;
8159;SDS011;27404;52.398;9.646;2023-10-08T08:06:08;5.73;;;2.37;;
8159;SDS011;27404;52.398;9.646;2023-10-08T08:08:34;5.50;;;2.60;;
8159;SDS011;27404;52.398;9.646;2023-10-08T08:11:08;7.00;;;2.70;;
8159;SDS011;27404;52.398;9.646;2023-10-08T08:13:40;7.00;;;2.07;;
8159;SDS011;27404;52.398;9.646;2023-10-08T08:16:13;4.23;;;2.50;;
8159;SDS011;27404;52.398;9.646;2023-10-08T08:21:09;6.33;;;2.47;;
8159;SDS011;27404;52.398;9.646;2023-10-08T08:23:39;5.60;;;2.97;;
8159;SDS011;27404;52.398;9.646;2023-10-08T08:29:04;5.13;;;2.40;;
8159;SDS011;27404;52.398;9.646;2023-10-08T08:31:34;5.37;;;2.73;;
8159;SDS011;27404;52.398;9.646;2023-10-08T08:34:01;5.77;;;2.43;;
8159;SDS011;27404;52.398;9.646;2023-10-08T08:36:42;7.47;;;2.97;;
8159;SDS011;27404;52.398;9.646;2023-10-08T08:39:14;6.03;;;2.77;;
8159;SDS011;27404;52.398;9.646;2023-10-08T08:42:00;7.83;;;2.57;;
8159;SDS011;27404;52.398;9.646;2023-10-08T08:44:30;4.57;;;2.40;;
8159;SDS011;27404;52.398;9.646;2023-10-08T08:46:58;6.03;;;2.67;;
8159;SDS011;27404;52.398;9.646;2023-10-08T08:49:29;5.50;;;2.27;;
8159;SDS011;27404;52.398;9.646;2023-10-08T08:52:00;7.33;;;2.30;;
8159;SDS011;27404;52.398;9.646;2023-10-08T08:54:28;8.27;;;2.77;;
8159;SDS011;27404;52.398;9.646;2023-10-08T08:56:56;6.70;;;2.87;;
8159;SDS011;27404;52.398;9.646;2023-10-08T08:59:27;4.80;;;2.10;;
8159;SDS011;27404;52.398;9.646;2023-10-08T09:01:56;8.53;;;2.10;;
8159;SDS011;27404;52.398;9.646;2023-10-08T09:04:28;6.97;;;2.83;;
8159;SDS011;27404;52.398;9.646;2023-10-08T09:06:55;6.33;;;2.00;;
8159;SDS011;27404;52.398;9.646;2023-10-08T09:09:21;5.67;;;2.47;;
8159;SDS011;27404;52.398;9.646;2023-10-08T09:11:52;4.37;;;1.97;;
8159;SDS011;27404;52.398;9.646;2023-10-08T09:14:22;3.50;;;1.80;;
8159;SDS011;27404;52.398;9.646;2023-10-08T09:16:49;4.53;;;1.80;;
8159;SDS011;27404;52.398;9.646;2023-10-08T09:19:15;3.80;;;1.53;;
8159;SDS011;27404;52.398;9.646;2023-10-08T09:21:59;6.60;;;1.97;;
8159;SDS011;27404;52.398;9.646;2023-10-08T09:24:25;5.17;;;1.90;;
8159;SDS011;27404;52.398;9.646;2023-10-08T09:26:54;4.17;;;1.73;;
8159;SDS011;27404;52.398;9.646;2023-10-08T09:29:23;3.83;;;1.60;;
8159;SDS011;27404;52.398;9.646;2023-10-08T09:31:53;5.57;;;1.83;;
8159;SDS011;27404;52.398;9.646;2023-10-08T09:34:26;5.27;;;1.77;;
8159;SDS011;27404;52.398;9.646;2023-10-08T09:36:54;4.03;;;1.70;;
8159;SDS011;27404;52.398;9.646;2023-10-08T09:39:21;4.50;;;1.60;;
8159;SDS011;27404;52.398;9.646;2023-10-08T09:41:54;2.60;;;1.40;;
8159;SDS011;27404;52.398;9.646;2023-10-08T09:44:23;9.87;;;2.00;;
8159;SDS011;27404;52.398;9.646;2023-10-08T09:47:08;6.30;;;1.40;;
8159;SDS011;27404;52.398;9.646;2023-10-08T09:49:44;7.80;;;1.40;;
8159;SDS011;27404;52.398;9.646;2023-10-08T09:52:19;5.10;;;1.30;;
8159;SDS011;27404;52.398;9.646;2023-10-08T09:54:53;9.20;;;1.70;;
8159;SDS011;27404;52.398;9.646;2023-10-08T09:57:24;5.67;;;1.30;;
8159;SDS011;27404;52.398;9.646;2023-10-08T09:59:52;8.77;;;1.50;;
8159;SDS011;27404;52.398;9.646;2023-10-08T10:02:19;3.80;;;1.10;;
8159;SDS011;27404;52.398;9.646;2023-10-08T10:04:49;4.83;;;1.20;;
8159;SDS011;27404;52.398;9.646;2023-10-08T10:07:17;4.77;;;1.27;;
8159;SDS011;27404;52.398;9.646;2023-10-08T10:09:44;4.57;;;1.20;;
8159;SDS011;27404;52.398;9.646;2023-10-08T10:12:12;10.40;;;1.63;;
8159;SDS011;27404;52.398;9.646;2023-10-08T10:14:43;4.43;;;1.27;;
8159;SDS011;27404;52.398;9.646;2023-10-08T10:17:14;4.60;;;1.20;;
8159;SDS011;27404;52.398;9.646;2023-10-08T10:19:49;4.17;;;1.03;;
8159;SDS011;27404;52.398;9.646;2023-10-08T10:22:26;4.13;;;1.20;;
8159;SDS011;27404;52.398;9.646;2023-10-08T10:24:53;5.67;;;1.30;;
8159;SDS011;27404;52.398;9.646;2023-10-08T10:27:19;6.00;;;1.30;;
8159;SDS011;27404;52.398;9.646;2023-10-08T10:29:45;5.17;;;1.43;;
8159;SDS011;27404;52.398;9.646;2023-10-08T10:32:12;5.10;;;1.40;;
8159;SDS011;27404;52.398;9.646;2023-10-08T10:34:40;4.03;;;1.10;;
8159;SDS011;27404;52.398;9.646;2023-10-08T10:37:10;5.43;;;1.00;;
8159;SDS011;27404;52.398;9.646;2023-10-08T10:39:51;5.60;;;1.37;;
8159;SDS011;27404;52.398;9.646;2023-10-08T10:42:19;4.03;;;1.20;;
8159;SDS011;27404;52.398;9.646;2023-10-08T10:44:48;5.50;;;1.10;;
8159;SDS011;27404;52.398;9.646;2023-10-08T10:47:18;7.47;;;1.20;;
8159;SDS011;27404;52.398;9.646;2023-10-08T10:49:48;6.43;;;1.07;;
8159;SDS011;27404;52.398;9.646;2023-10-08T10:52:21;3.33;;;1.23;;
8159;SDS011;27404;52.398;9.646;2023-10-08T10:55:01;4.13;;;1.50;;
8159;SDS011;27404;52.398;9.646;2023-10-08T10:57:44;7.73;;;1.20;;
8159;SDS011;27404;52.398;9.646;2023-10-08T11:00:36;3.20;;;0.90;;
8159;SDS011;27404;52.398;9.646;2023-10-08T11:03:03;7.40;;;1.63;;
8159;SDS011;27404;52.398;9.646;2023-10-08T11:05:41;3.00;;;1.30;;
8159;SDS011;27404;52.398;9.646;2023-10-08T11:08:13;3.97;;;1.33;;
8159;SDS011;27404;52.398;9.646;2023-10-08T11:10:42;2.87;;;1.10;;
8159;SDS011;27404;52.398;9.646;2023-10-08T11:13:20;4.87;;;1.40;;
8159;SDS011;27404;52.398;9.646;2023-10-08T11:15:47;5.23;;;1.23;;
8159;SDS011;27404;52.398;9.646;2023-10-08T11:18:18;2.83;;;1.07;;
8159;SDS011;27404;52.398;9.646;2023-10-08T11:20:45;3.30;;;1.23;;
8159;SDS011;27404;52.398;9.646;2023-10-08T11:23:32;2.30;;;1.00;;
8159;SDS011;27404;52.398;9.646;2023-10-08T11:26:05;3.07;;;0.90;;
8159;SDS011;27404;52.398;9.646;2023-10-08T11:28:34;3.53;;;1.00;;
8159;SDS011;27404;52.398;9.646;2023-10-08T11:31:07;4.10;;;1.37;;
8159;SDS011;27404;52.398;9.646;2023-10-08T11:33:36;5.20;;;1.70;;
8159;SDS011;27404;52.398;9.646;2023-10-08T11:36:06;3.37;;;1.40;;
8159;SDS011;27404;52.398;9.646;2023-10-08T11:38:43;6.57;;;1.40;;
8159;SDS011;27404;52.398;9.646;2023-10-08T11:41:13;3.43;;;1.20;;
8159;SDS011;27404;52.398;9.646;2023-10-08T11:43:49;4.80;;;1.37;;
8159;SDS011;27404;52.398;9.646;2023-10-08T11:49:06;4.80;;;1.23;;
8159;SDS011;27404;52.398;9.646;2023-10-08T11:51:42;6.57;;;1.30;;
8159;SDS011;27404;52.398;9.646;2023-10-08T11:54:08;4.10;;;1.80;;
8159;SDS011;27404;52.398;9.646;2023-10-08T11:56:37;3.43;;;1.37;;
8159;SDS011;27404;52.398;9.646;2023-10-08T11:59:03;6.37;;;1.30;;
8159;SDS011;27404;52.398;9.646;2023-10-08T12:01:34;3.83;;;1.40;;
8159;SDS011;27404;52.398;9.646;2023-10-08T12:04:01;4.33;;;1.20;;
8159;SDS011;27404;52.398;9.646;2023-10-08T12:06:26;7.37;;;1.40;;
8159;SDS011;27404;52.398;9.646;2023-10-08T12:08:55;4.90;;;1.27;;
8159;SDS011;27404;52.398;9.646;2023-10-08T12:11:24;5.97;;;1.37;;
8159;SDS011;27404;52.398;9.646;2023-10-08T12:13:56;3.43;;;1.20;;
8159;SDS011;27404;52.398;9.646;2023-10-08T12:16:24;4.00;;;1.20;;
8159;SDS011;27404;52.398;9.646;2023-10-08T12:18:51;6.40;;;1.37;;
8159;SDS011;27404;52.398;9.646;2023-10-08T12:21:27;4.63;;;1.20;;
8159;SDS011;27404;52.398;9.646;2023-10-08T12:23:57;2.03;;;1.10;;
8159;SDS011;27404;52.398;9.646;2023-10-08T12:26:23;6.20;;;1.53;;
8159;SDS011;27404;52.398;9.646;2023-10-08T12:28:50;2.60;;;1.10;;
8159;SDS011;27404;52.398;9.646;2023-10-08T12:31:16;3.70;;;1.33;;
8159;SDS011;27404;52.398;9.646;2023-10-08T12:33:46;3.50;;;1.30;;
8159;SDS011;27404;52.398;9.646;2023-10-08T12:36:12;6.40;;;1.53;;
8159;SDS011;27404;52.398;9.646;2023-10-08T12:38:39;5.07;;;1.30;;
8159;SDS011;27404;52.398;9.646;2023-10-08T12:41:06;4.13;;;1.30;;
8159;SDS011;27404;52.398;9.646;2023-10-08T12:43:38;4.53;;;1.40;;
8159;SDS011;27404;52.398;9.646;2023-10-08T12:46:11;5.67;;;1.33;;
8159;SDS011;27404;52.398;9.646;2023-10-08T12:48:43;4.53;;;1.30;;
8159;SDS011;27404;52.398;9.646;2023-10-08T12:51:12;3.23;;;1.30;;
8159;SDS011;27404;52.398;9.646;2023-10-08T12:53:39;4.23;;;1.10;;
8159;SDS011;27404;52.398;9.646;2023-10-08T12:56:05;4.97;;;1.40;;
8159;SDS011;27404;52.398;9.646;2023-10-08T12:58:35;5.37;;;1.27;;
8159;SDS011;27404;52.398;9.646;2023-10-08T13:01:12;6.40;;;1.30;;
8159;SDS011;27404;52.398;9.646;2023-10-08T13:03:42;2.93;;;1.07;;
8159;SDS011;27404;52.398;9.646;2023-10-08T13:06:18;4.93;;;1.77;;
8159;SDS011;27404;52.398;9.646;2023-10-08T13:08:50;5.87;;;1.20;;
8159;SDS011;27404;52.398;9.646;2023-10-08T13:11:18;4.87;;;1.20;;
8159;SDS011;27404;52.398;9.646;2023-10-08T13:13:53;3.80;;;1.20;;
8159;SDS011;27404;52.398;9.646;2023-10-08T13:16:24;8.43;;;1.40;;
8159;SDS011;27404;52.398;9.646;2023-10-08T13:18:51;2.80;;;1.00;;
8159;SDS011;27404;52.398;9.646;2023-10-08T13:21:18;2.67;;;1.20;;
8159;SDS011;27404;52.398;9.646;2023-10-08T13:23:50;2.70;;;1.30;;
8159;SDS011;27404;52.398;9.646;2023-10-08T13:26:22;4.80;;;1.30;;
8159;SDS011;27404;52.398;9.646;2023-10-08T13:28:49;2.10;;;0.83;;
8159;SDS011;27404;52.398;9.646;2023-10-08T13:31:15;2.53;;;1.20;;
8159;SDS011;27404;52.398;9.646;2023-10-08T13:33:42;2.43;;;0.97;;
8159;SDS011;27404;52.398;9.646;2023-10-08T13:36:09;3.23;;;1.30;;
8159;SDS011;27404;52.398;9.646;2023-10-08T13:38:36;2.67;;;1.00;;
8159;SDS011;27404;52.398;9.646;2023-10-08T13:41:05;6.57;;;1.50;;
8159;SDS011;27404;52.398;9.646;2023-10-08T13:43:40;3.33;;;1.23;;
8159;SDS011;27404;52.398;9.646;2023-10-08T13:46:06;4.80;;;1.40;;
8159;SDS011;27404;52.398;9.646;2023-10-08T13:48:38;3.50;;;1.40;;
8159;SDS011;27404;52.398;9.646;2023-10-08T13:51:04;2.23;;;1.03;;
8159;SDS011;27404;52.398;9.646;2023-10-08T13:53:36;2.10;;;1.00;;
8159;SDS011;27404;52.398;9.646;2023-10-08T13:56:04;4.20;;;1.50;;
8159;SDS011;27404;52.398;9.646;2023-10-08T13:58:33;3.17;;;0.90;;
8159;SDS011;27404;52.398;9.646;2023-10-08T14:01:05;5.70;;;1.50;;
8159;SDS011;27404;52.398;9.646;2023-10-08T14:03:44;2.37;;;1.00;;
8159;SDS011;27404;52.398;9.646;2023-10-08T14:06:13;4.53;;;1.10;;
8159;SDS011;27404;52.398;9.646;2023-10-08T14:08:42;3.30;;;1.30;;
8159;SDS011;27404;52.398;9.646;2023-10-08T14:11:13;4.53;;;1.43;;
8159;SDS011;27404;52.398;9.646;2023-10-08T14:13:39;3.77;;;1.20;;
8159;SDS011;27404;52.398;9.646;2023-10-08T14:16:07;3.20;;;1.10;;
8159;SDS011;27404;52.398;9.646;2023-10-08T14:18:36;4.57;;;1.30;;
8159;SDS011;27404;52.398;9.646;2023-10-08T14:21:08;3.37;;;1.00;;
8159;SDS011;27404;52.398;9.646;2023-10-08T14:23:36;2.83;;;1.10;;
8159;SDS011;27404;52.398;9.646;2023-10-08T14:26:08;4.13;;;1.03;;
8159;SDS011;27404;52.398;9.646;2023-10-08T14:28:35;6.27;;;1.10;;
8159;SDS011;27404;52.398;9.646;2023-10-08T14:31:16;3.57;;;1.03;;
8159;SDS011;27404;52.398;9.646;2023-10-08T14:33:43;2.33;;;1.07;;
8159;SDS011;27404;52.398;9.646;2023-10-08T14:36:23;3.37;;;1.20;;
8159;SDS011;27404;52.398;9.646;2023-10-08T14:39:08;5.03;;;1.10;;
8159;SDS011;27404;52.398;9.646;2023-10-08T14:41:52;3.70;;;1.30;;
8159;SDS011;27404;52.398;9.646;2023-10-08T14:44:56;4.70;;;1.30;;
8159;SDS011;27404;52.398;9.646;2023-10-08T14:47:22;4.37;;;1.40;;
8159;SDS011;27404;52.398;9.646;2023-10-08T14:49:47;5.10;;;1.07;;
8159;SDS011;27404;52.398;9.646;2023-10-08T14:52:12;3.83;;;1.40;;
8159;SDS011;27404;52.398;9.646;2023-10-08T14:54:38;3.70;;;1.30;;
8159;SDS011;27404;52.398;9.646;2023-10-08T14:57:04;2.77;;;1.13;;
8159;SDS011;27404;52.398;9.646;2023-10-08T14:59:31;3.97;;;1.07;;
8159;SDS011;27404;52.398;9.646;2023-10-08T15:01:57;5.00;;;1.30;;
8159;SDS011;27404;52.398;9.646;2023-10-08T15:04:23;3.67;;;1.13;;
8159;SDS011;27404;52.398;9.646;2023-10-08T15:06:53;4.30;;;1.23;;
8159;SDS011;27404;52.398;9.646;2023-10-08T15:09:20;3.90;;;1.13;;
8159;SDS011;27404;52.398;9.646;2023-10-08T15:11:49;2.77;;;1.20;;
8159;SDS011;27404;52.398;9.646;2023-10-08T15:14:17;5.77;;;1.23;;
8159;SDS011;27404;52.398;9.646;2023-10-08T15:16:44;6.10;;;1.27;;
8159;SDS011;27404;52.398;9.646;2023-10-08T15:19:11;2.27;;;1.00;;
8159;SDS011;27404;52.398;9.646;2023-10-08T15:21:38;2.57;;;1.27;;
8159;SDS011;27404;52.398;9.646;2023-10-08T15:24:07;3.57;;;1.27;;
8159;SDS011;27404;52.398;9.646;2023-10-08T15:26:36;4.17;;;1.10;;
8159;SDS011;27404;52.398;9.646;2023-10-08T15:29:02;3.20;;;1.23;;
8159;SDS011;27404;52.398;9.646;2023-10-08T15:31:28;2.57;;;1.10;;
8159;SDS011;27404;52.398;9.646;2023-10-08T15:33:54;6.40;;;1.00;;
8159;SDS011;27404;52.398;9.646;2023-10-08T15:36:20;2.10;;;1.20;;
8159;SDS011;27404;52.398;9.646;2023-10-08T15:38:45;2.83;;;1.17;;
8159;SDS011;27404;52.398;9.646;2023-10-08T15:41:11;1.90;;;0.97;;